sensor_id;sensor_type;location;lat;lon;timestamp;P1;durP1;ratioP1;P2;durP2;ratioP2
12433;SDS011;6281;49.038;8.372;2022-12-17T00:00:01;21.13;;;10.90;;
12433;SDS011;6281;49.038;8.372;2022-12-17T00:02:55;21.58;;;11.90;;
12433;SDS011;6281;49.038;8.372;2022-12-17T00:05:40;18.10;;;10.50;;
12433;SDS011;6281;49.038;8.372;2022-12-17T00:08:25;21.17;;;11.18;;
12433;SDS011;6281;49.038;8.372;2022-12-17T00:11:09;19.73;;;10.43;;
12433;SDS011;6281;49.038;8.372;2022-12-17T00:13:54;22.30;;;11.55;;
12433;SDS011;6281;49.038;8.372;2022-12-17T00:16:39;18.55;;;10.63;;
12433;SDS011;6281;49.038;8.372;2022-12-17T00:19:24;19.35;;;11.02;;
12433;SDS011;6281;49.038;8.372;2022-12-17T00:22:08;19.73;;;11.55;;
12433;SDS011;6281;49.038;8.372;2022-12-17T00:24:52;20.50;;;10.68;;
12433;SDS011;6281;49.038;8.372;2022-12-17T00:27:36;18.08;;;10.75;;
12433;SDS011;6281;49.038;8.372;2022-12-17T00:30:22;20.65;;;11.52;;
12433;SDS011;6281;49.038;8.372;2022-12-17T00:33:06;18.77;;;11.38;;
12433;SDS011;6281;49.038;8.372;2022-12-17T00:35:50;19.92;;;10.80;;
12433;SDS011;6281;49.038;8.372;2022-12-17T00:38:34;22.13;;;12.00;;
12433;SDS011;6281;49.038;8.372;2022-12-17T00:41:18;18.00;;;11.23;;
12433;SDS011;6281;49.038;8.372;2022-12-17T00:44:03;21.15;;;10.90;;
12433;SDS011;6281;49.038;8.372;2022-12-17T00:46:49;21.65;;;10.85;;
12433;SDS011;6281;49.038;8.372;2022-12-17T00:49:33;21.88;;;11.43;;
12433;SDS011;6281;49.038;8.372;2022-12-17T00:52:17;20.58;;;10.43;;
12433;SDS011;6281;49.038;8.372;2022-12-17T00:55:02;20.63;;;10.65;;
12433;SDS011;6281;49.038;8.372;2022-12-17T00:57:50;19.73;;;11.48;;
12433;SDS011;6281;49.038;8.372;2022-12-17T01:00:36;18.95;;;10.70;;
12433;SDS011;6281;49.038;8.372;2022-12-17T01:03:21;22.55;;;11.55;;
12433;SDS011;6281;49.038;8.372;2022-12-17T01:06:06;20.85;;;11.52;;
12433;SDS011;6281;49.038;8.372;2022-12-17T01:08:51;19.73;;;11.32;;
12433;SDS011;6281;49.038;8.372;2022-12-17T01:11:36;23.10;;;11.35;;
12433;SDS011;6281;49.038;8.372;2022-12-17T01:14:21;19.52;;;11.13;;
12433;SDS011;6281;49.038;8.372;2022-12-17T01:17:05;19.15;;;11.95;;
12433;SDS011;6281;49.038;8.372;2022-12-17T01:19:51;23.25;;;11.90;;
12433;SDS011;6281;49.038;8.372;2022-12-17T01:22:35;25.45;;;11.45;;
12433;SDS011;6281;49.038;8.372;2022-12-17T01:25:19;20.80;;;11.98;;
12433;SDS011;6281;49.038;8.372;2022-12-17T01:28:04;22.42;;;12.65;;
12433;SDS011;6281;49.038;8.372;2022-12-17T01:30:48;26.80;;;12.60;;
12433;SDS011;6281;49.038;8.372;2022-12-17T01:33:32;20.00;;;11.05;;
12433;SDS011;6281;49.038;8.372;2022-12-17T01:36:17;21.58;;;11.18;;
12433;SDS011;6281;49.038;8.372;2022-12-17T01:39:02;21.38;;;11.45;;
12433;SDS011;6281;49.038;8.372;2022-12-17T01:41:46;20.92;;;11.43;;
12433;SDS011;6281;49.038;8.372;2022-12-17T01:44:48;21.88;;;11.65;;
12433;SDS011;6281;49.038;8.372;2022-12-17T01:47:36;25.65;;;11.70;;
12433;SDS011;6281;49.038;8.372;2022-12-17T01:50:23;25.58;;;12.32;;
12433;SDS011;6281;49.038;8.372;2022-12-17T01:53:10;23.73;;;11.73;;
12433;SDS011;6281;49.038;8.372;2022-12-17T01:55:58;22.88;;;12.20;;
12433;SDS011;6281;49.038;8.372;2022-12-17T01:58:43;20.25;;;11.10;;
12433;SDS011;6281;49.038;8.372;2022-12-17T02:01:27;19.42;;;10.48;;
12433;SDS011;6281;49.038;8.372;2022-12-17T02:04:12;19.60;;;10.75;;
12433;SDS011;6281;49.038;8.372;2022-12-17T02:07:00;19.92;;;11.20;;
12433;SDS011;6281;49.038;8.372;2022-12-17T02:13:28;24.42;;;10.65;;
12433;SDS011;6281;49.038;8.372;2022-12-17T02:16:16;21.42;;;10.75;;
12433;SDS011;6281;49.038;8.372;2022-12-17T02:19:05;20.98;;;11.43;;
12433;SDS011;6281;49.038;8.372;2022-12-17T02:22:08;18.75;;;9.88;;
12433;SDS011;6281;49.038;8.372;2022-12-17T02:25:00;22.58;;;11.02;;
12433;SDS011;6281;49.038;8.372;2022-12-17T02:27:50;20.58;;;11.23;;
12433;SDS011;6281;49.038;8.372;2022-12-17T02:30:34;22.13;;;11.82;;
12433;SDS011;6281;49.038;8.372;2022-12-17T02:33:20;24.08;;;11.82;;
12433;SDS011;6281;49.038;8.372;2022-12-17T02:36:05;20.70;;;10.85;;
12433;SDS011;6281;49.038;8.372;2022-12-17T02:38:50;22.35;;;11.63;;
12433;SDS011;6281;49.038;8.372;2022-12-17T02:41:35;19.80;;;11.20;;
12433;SDS011;6281;49.038;8.372;2022-12-17T02:44:24;23.75;;;11.68;;
12433;SDS011;6281;49.038;8.372;2022-12-17T02:47:10;23.20;;;9.88;;
12433;SDS011;6281;49.038;8.372;2022-12-17T02:49:57;21.25;;;9.98;;
12433;SDS011;6281;49.038;8.372;2022-12-17T02:52:43;19.70;;;9.68;;
12433;SDS011;6281;49.038;8.372;2022-12-17T02:55:29;19.58;;;10.75;;
12433;SDS011;6281;49.038;8.372;2022-12-17T02:58:13;21.75;;;10.73;;
12433;SDS011;6281;49.038;8.372;2022-12-17T03:00:58;19.05;;;10.05;;
12433;SDS011;6281;49.038;8.372;2022-12-17T03:03:43;18.30;;;10.48;;
12433;SDS011;6281;49.038;8.372;2022-12-17T03:06:27;17.77;;;9.57;;
12433;SDS011;6281;49.038;8.372;2022-12-17T03:09:11;19.38;;;10.40;;
12433;SDS011;6281;49.038;8.372;2022-12-17T03:11:55;16.75;;;9.27;;
12433;SDS011;6281;49.038;8.372;2022-12-17T03:14:39;17.25;;;10.18;;
12433;SDS011;6281;49.038;8.372;2022-12-17T03:17:25;19.38;;;10.23;;
12433;SDS011;6281;49.038;8.372;2022-12-17T03:20:09;19.63;;;9.68;;
12433;SDS011;6281;49.038;8.372;2022-12-17T03:22:59;17.20;;;8.88;;
12433;SDS011;6281;49.038;8.372;2022-12-17T03:25:44;15.20;;;8.43;;
12433;SDS011;6281;49.038;8.372;2022-12-17T03:28:28;15.65;;;8.07;;
12433;SDS011;6281;49.038;8.372;2022-12-17T03:31:13;18.05;;;8.45;;
12433;SDS011;6281;49.038;8.372;2022-12-17T03:33:59;15.23;;;8.25;;
12433;SDS011;6281;49.038;8.372;2022-12-17T03:36:43;17.60;;;8.55;;
12433;SDS011;6281;49.038;8.372;2022-12-17T03:39:27;18.33;;;9.45;;
12433;SDS011;6281;49.038;8.372;2022-12-17T03:42:11;18.50;;;10.82;;
12433;SDS011;6281;49.038;8.372;2022-12-17T03:44:56;20.73;;;10.65;;
12433;SDS011;6281;49.038;8.372;2022-12-17T03:47:40;22.88;;;11.05;;
12433;SDS011;6281;49.038;8.372;2022-12-17T03:50:25;25.90;;;12.55;;
12433;SDS011;6281;49.038;8.372;2022-12-17T03:53:10;24.63;;;11.18;;
12433;SDS011;6281;49.038;8.372;2022-12-17T03:55:54;21.23;;;11.18;;
12433;SDS011;6281;49.038;8.372;2022-12-17T03:58:38;19.05;;;11.55;;
12433;SDS011;6281;49.038;8.372;2022-12-17T04:01:22;25.25;;;11.32;;
12433;SDS011;6281;49.038;8.372;2022-12-17T04:04:06;22.10;;;10.98;;
12433;SDS011;6281;49.038;8.372;2022-12-17T04:06:52;22.15;;;10.43;;
12433;SDS011;6281;49.038;8.372;2022-12-17T04:09:36;21.50;;;10.98;;
12433;SDS011;6281;49.038;8.372;2022-12-17T04:12:21;19.10;;;10.27;;
12433;SDS011;6281;49.038;8.372;2022-12-17T04:15:05;20.98;;;10.55;;
12433;SDS011;6281;49.038;8.372;2022-12-17T04:17:49;17.77;;;9.50;;
12433;SDS011;6281;49.038;8.372;2022-12-17T04:20:34;21.17;;;10.27;;
12433;SDS011;6281;49.038;8.372;2022-12-17T04:23:19;21.85;;;11.20;;
12433;SDS011;6281;49.038;8.372;2022-12-17T04:26:03;17.85;;;9.82;;
12433;SDS011;6281;49.038;8.372;2022-12-17T04:28:48;15.20;;;9.30;;
12433;SDS011;6281;49.038;8.372;2022-12-17T04:31:32;21.90;;;10.68;;
12433;SDS011;6281;49.038;8.372;2022-12-17T04:34:16;23.40;;;10.07;;
12433;SDS011;6281;49.038;8.372;2022-12-17T04:37:00;18.98;;;10.70;;
12433;SDS011;6281;49.038;8.372;2022-12-17T04:39:46;24.30;;;10.65;;
12433;SDS011;6281;49.038;8.372;2022-12-17T04:42:30;21.67;;;11.38;;
12433;SDS011;6281;49.038;8.372;2022-12-17T04:45:15;33.03;;;12.20;;
12433;SDS011;6281;49.038;8.372;2022-12-17T04:47:59;17.33;;;10.15;;
12433;SDS011;6281;49.038;8.372;2022-12-17T04:50:45;27.90;;;11.55;;
12433;SDS011;6281;49.038;8.372;2022-12-17T04:53:29;25.13;;;11.10;;
12433;SDS011;6281;49.038;8.372;2022-12-17T04:56:22;27.50;;;12.07;;
12433;SDS011;6281;49.038;8.372;2022-12-17T04:59:06;24.88;;;12.13;;
12433;SDS011;6281;49.038;8.372;2022-12-17T05:01:50;25.35;;;12.73;;
12433;SDS011;6281;49.038;8.372;2022-12-17T05:04:35;25.63;;;12.73;;
12433;SDS011;6281;49.038;8.372;2022-12-17T05:07:19;35.15;;;14.90;;
12433;SDS011;6281;49.038;8.372;2022-12-17T05:10:03;31.38;;;14.50;;
12433;SDS011;6281;49.038;8.372;2022-12-17T05:12:55;30.02;;;13.90;;
12433;SDS011;6281;49.038;8.372;2022-12-17T05:15:39;33.75;;;14.65;;
12433;SDS011;6281;49.038;8.372;2022-12-17T05:18:24;29.55;;;14.80;;
12433;SDS011;6281;49.038;8.372;2022-12-17T05:21:08;33.45;;;16.15;;
12433;SDS011;6281;49.038;8.372;2022-12-17T05:24:00;29.58;;;14.40;;
12433;SDS011;6281;49.038;8.372;2022-12-17T05:26:45;35.08;;;15.45;;
12433;SDS011;6281;49.038;8.372;2022-12-17T05:29:30;32.60;;;14.93;;
12433;SDS011;6281;49.038;8.372;2022-12-17T05:32:14;32.78;;;15.65;;
12433;SDS011;6281;49.038;8.372;2022-12-17T05:34:58;34.55;;;16.00;;
12433;SDS011;6281;49.038;8.372;2022-12-17T05:37:42;37.10;;;15.55;;
12433;SDS011;6281;49.038;8.372;2022-12-17T05:40:27;39.45;;;16.08;;
12433;SDS011;6281;49.038;8.372;2022-12-17T05:43:11;34.65;;;15.77;;
12433;SDS011;6281;49.038;8.372;2022-12-17T05:45:57;33.55;;;14.52;;
12433;SDS011;6281;49.038;8.372;2022-12-17T05:48:41;41.15;;;17.42;;
12433;SDS011;6281;49.038;8.372;2022-12-17T05:51:25;33.47;;;15.15;;
12433;SDS011;6281;49.038;8.372;2022-12-17T05:54:09;37.90;;;16.15;;
12433;SDS011;6281;49.038;8.372;2022-12-17T05:56:54;34.95;;;16.20;;
12433;SDS011;6281;49.038;8.372;2022-12-17T05:59:38;36.30;;;15.45;;
12433;SDS011;6281;49.038;8.372;2022-12-17T06:02:24;33.88;;;16.52;;
12433;SDS011;6281;49.038;8.372;2022-12-17T06:05:09;34.88;;;16.52;;
12433;SDS011;6281;49.038;8.372;2022-12-17T06:08:00;34.78;;;15.57;;
12433;SDS011;6281;49.038;8.372;2022-12-17T06:10:45;38.63;;;17.48;;
12433;SDS011;6281;49.038;8.372;2022-12-17T06:13:30;34.40;;;16.33;;
12433;SDS011;6281;49.038;8.372;2022-12-17T06:16:14;35.50;;;16.75;;
12433;SDS011;6281;49.038;8.372;2022-12-17T06:18:59;30.90;;;14.55;;
12433;SDS011;6281;49.038;8.372;2022-12-17T06:21:58;33.58;;;15.85;;
12433;SDS011;6281;49.038;8.372;2022-12-17T06:24:43;34.83;;;16.48;;
12433;SDS011;6281;49.038;8.372;2022-12-17T06:27:28;37.80;;;16.13;;
12433;SDS011;6281;49.038;8.372;2022-12-17T06:30:12;36.50;;;15.75;;
12433;SDS011;6281;49.038;8.372;2022-12-17T06:33:01;25.48;;;11.60;;
12433;SDS011;6281;49.038;8.372;2022-12-17T06:35:48;39.05;;;14.35;;
12433;SDS011;6281;49.038;8.372;2022-12-17T06:38:32;31.42;;;15.43;;
12433;SDS011;6281;49.038;8.372;2022-12-17T06:41:16;30.38;;;15.25;;
12433;SDS011;6281;49.038;8.372;2022-12-17T06:44:00;37.45;;;15.52;;
12433;SDS011;6281;49.038;8.372;2022-12-17T06:46:44;38.38;;;16.27;;
12433;SDS011;6281;49.038;8.372;2022-12-17T06:49:28;33.47;;;15.73;;
12433;SDS011;6281;49.038;8.372;2022-12-17T06:52:14;35.22;;;16.35;;
12433;SDS011;6281;49.038;8.372;2022-12-17T06:54:58;36.03;;;17.00;;
12433;SDS011;6281;49.038;8.372;2022-12-17T06:57:42;34.65;;;14.75;;
12433;SDS011;6281;49.038;8.372;2022-12-17T07:00:26;32.80;;;14.43;;
12433;SDS011;6281;49.038;8.372;2022-12-17T07:03:11;32.33;;;15.52;;
12433;SDS011;6281;49.038;8.372;2022-12-17T07:05:55;37.40;;;15.68;;
12433;SDS011;6281;49.038;8.372;2022-12-17T07:08:43;31.90;;;15.77;;
12433;SDS011;6281;49.038;8.372;2022-12-17T07:11:28;27.80;;;13.98;;
12433;SDS011;6281;49.038;8.372;2022-12-17T07:14:12;31.55;;;15.80;;
12433;SDS011;6281;49.038;8.372;2022-12-17T07:16:56;35.78;;;16.27;;
12433;SDS011;6281;49.038;8.372;2022-12-17T07:19:40;36.42;;;16.70;;
12433;SDS011;6281;49.038;8.372;2022-12-17T07:22:24;32.90;;;16.65;;
12433;SDS011;6281;49.038;8.372;2022-12-17T07:25:10;33.17;;;16.08;;
12433;SDS011;6281;49.038;8.372;2022-12-17T07:27:54;30.02;;;14.43;;
12433;SDS011;6281;49.038;8.372;2022-12-17T07:30:39;33.88;;;15.27;;
12433;SDS011;6281;49.038;8.372;2022-12-17T07:33:23;31.65;;;15.10;;
12433;SDS011;6281;49.038;8.372;2022-12-17T07:36:08;35.47;;;16.15;;
12433;SDS011;6281;49.038;8.372;2022-12-17T07:38:52;34.45;;;15.10;;
12433;SDS011;6281;49.038;8.372;2022-12-17T07:41:37;29.85;;;13.95;;
12433;SDS011;6281;49.038;8.372;2022-12-17T07:44:21;28.60;;;13.93;;
12433;SDS011;6281;49.038;8.372;2022-12-17T07:47:05;39.00;;;17.13;;
12433;SDS011;6281;49.038;8.372;2022-12-17T07:49:50;36.40;;;16.88;;
12433;SDS011;6281;49.038;8.372;2022-12-17T07:52:34;30.45;;;14.80;;
12433;SDS011;6281;49.038;8.372;2022-12-17T07:55:19;33.13;;;15.73;;
12433;SDS011;6281;49.038;8.372;2022-12-17T07:58:05;37.25;;;17.95;;
12433;SDS011;6281;49.038;8.372;2022-12-17T08:00:51;35.30;;;15.70;;
12433;SDS011;6281;49.038;8.372;2022-12-17T08:03:35;34.80;;;16.42;;
12433;SDS011;6281;49.038;8.372;2022-12-17T08:06:19;35.72;;;15.95;;
12433;SDS011;6281;49.038;8.372;2022-12-17T08:09:03;42.88;;;14.63;;
12433;SDS011;6281;49.038;8.372;2022-12-17T08:11:48;36.70;;;15.60;;
12433;SDS011;6281;49.038;8.372;2022-12-17T08:14:34;35.47;;;17.67;;
12433;SDS011;6281;49.038;8.372;2022-12-17T08:17:18;32.78;;;16.20;;
12433;SDS011;6281;49.038;8.372;2022-12-17T08:20:03;39.30;;;16.52;;
12433;SDS011;6281;49.038;8.372;2022-12-17T08:22:48;32.97;;;15.60;;
12433;SDS011;6281;49.038;8.372;2022-12-17T08:25:32;39.83;;;17.48;;
12433;SDS011;6281;49.038;8.372;2022-12-17T08:28:16;34.03;;;16.17;;
12433;SDS011;6281;49.038;8.372;2022-12-17T08:31:02;31.98;;;15.75;;
12433;SDS011;6281;49.038;8.372;2022-12-17T08:33:46;39.03;;;17.73;;
12433;SDS011;6281;49.038;8.372;2022-12-17T08:36:30;32.30;;;14.88;;
12433;SDS011;6281;49.038;8.372;2022-12-17T08:39:23;35.13;;;15.55;;
12433;SDS011;6281;49.038;8.372;2022-12-17T08:42:07;40.25;;;15.18;;
12433;SDS011;6281;49.038;8.372;2022-12-17T08:44:51;35.65;;;16.45;;
12433;SDS011;6281;49.038;8.372;2022-12-17T08:47:37;33.05;;;16.67;;
12433;SDS011;6281;49.038;8.372;2022-12-17T08:50:21;39.55;;;17.45;;
12433;SDS011;6281;49.038;8.372;2022-12-17T08:53:05;45.83;;;18.80;;
12433;SDS011;6281;49.038;8.372;2022-12-17T08:55:49;42.47;;;18.67;;
12433;SDS011;6281;49.038;8.372;2022-12-17T08:58:42;44.70;;;19.05;;
12433;SDS011;6281;49.038;8.372;2022-12-17T09:01:26;40.70;;;17.95;;
12433;SDS011;6281;49.038;8.372;2022-12-17T09:04:12;39.72;;;18.17;;
12433;SDS011;6281;49.038;8.372;2022-12-17T09:06:56;39.50;;;18.75;;
12433;SDS011;6281;49.038;8.372;2022-12-17T09:09:40;35.83;;;16.00;;
12433;SDS011;6281;49.038;8.372;2022-12-17T09:12:24;30.88;;;13.98;;
12433;SDS011;6281;49.038;8.372;2022-12-17T09:15:08;28.40;;;13.48;;
12433;SDS011;6281;49.038;8.372;2022-12-17T09:17:53;32.58;;;15.35;;
12433;SDS011;6281;49.038;8.372;2022-12-17T09:20:38;31.50;;;14.40;;
12433;SDS011;6281;49.038;8.372;2022-12-17T09:23:22;34.10;;;15.52;;
12433;SDS011;6281;49.038;8.372;2022-12-17T09:26:06;39.78;;;15.98;;
12433;SDS011;6281;49.038;8.372;2022-12-17T09:28:51;40.15;;;16.88;;
12433;SDS011;6281;49.038;8.372;2022-12-17T09:31:35;35.75;;;15.73;;
12433;SDS011;6281;49.038;8.372;2022-12-17T09:34:19;36.20;;;16.17;;
12433;SDS011;6281;49.038;8.372;2022-12-17T09:37:04;37.42;;;16.13;;
12433;SDS011;6281;49.038;8.372;2022-12-17T09:39:54;37.30;;;16.50;;
12433;SDS011;6281;49.038;8.372;2022-12-17T09:42:40;41.42;;;17.13;;
12433;SDS011;6281;49.038;8.372;2022-12-17T09:45:28;37.45;;;16.55;;
12433;SDS011;6281;49.038;8.372;2022-12-17T09:48:18;39.53;;;16.88;;
12433;SDS011;6281;49.038;8.372;2022-12-17T09:51:20;45.83;;;19.38;;
12433;SDS011;6281;49.038;8.372;2022-12-17T09:54:11;43.83;;;18.90;;
12433;SDS011;6281;49.038;8.372;2022-12-17T09:57:07;42.90;;;19.33;;
12433;SDS011;6281;49.038;8.372;2022-12-17T09:59:56;38.50;;;18.00;;
12433;SDS011;6281;49.038;8.372;2022-12-17T10:02:39;42.55;;;18.65;;
12433;SDS011;6281;49.038;8.372;2022-12-17T10:05:24;37.13;;;18.17;;
12433;SDS011;6281;49.038;8.372;2022-12-17T10:08:10;42.90;;;18.20;;
12433;SDS011;6281;49.038;8.372;2022-12-17T10:10:58;39.17;;;18.33;;
12433;SDS011;6281;49.038;8.372;2022-12-17T10:13:53;37.13;;;17.88;;
12433;SDS011;6281;49.038;8.372;2022-12-17T10:16:38;38.85;;;17.85;;
12433;SDS011;6281;49.038;8.372;2022-12-17T10:19:28;37.88;;;19.15;;
12433;SDS011;6281;49.038;8.372;2022-12-17T10:22:16;36.58;;;17.25;;
12433;SDS011;6281;49.038;8.372;2022-12-17T10:25:01;35.72;;;18.60;;
12433;SDS011;6281;49.038;8.372;2022-12-17T10:27:48;38.22;;;17.27;;
12433;SDS011;6281;49.038;8.372;2022-12-17T10:30:32;37.88;;;15.15;;
12433;SDS011;6281;49.038;8.372;2022-12-17T10:33:17;35.88;;;16.42;;
12433;SDS011;6281;49.038;8.372;2022-12-17T10:36:03;38.70;;;17.23;;
12433;SDS011;6281;49.038;8.372;2022-12-17T10:38:52;34.13;;;14.85;;
12433;SDS011;6281;49.038;8.372;2022-12-17T10:41:39;33.17;;;15.57;;
12433;SDS011;6281;49.038;8.372;2022-12-17T10:44:27;33.95;;;15.30;;
12433;SDS011;6281;49.038;8.372;2022-12-17T10:47:13;41.80;;;18.38;;
12433;SDS011;6281;49.038;8.372;2022-12-17T10:49:59;38.38;;;17.95;;
12433;SDS011;6281;49.038;8.372;2022-12-17T10:52:44;35.50;;;16.80;;
12433;SDS011;6281;49.038;8.372;2022-12-17T10:55:30;44.05;;;18.33;;
12433;SDS011;6281;49.038;8.372;2022-12-17T10:58:16;41.72;;;17.40;;
12433;SDS011;6281;49.038;8.372;2022-12-17T11:01:04;44.60;;;18.80;;
12433;SDS011;6281;49.038;8.372;2022-12-17T11:03:52;39.72;;;18.88;;
12433;SDS011;6281;49.038;8.372;2022-12-17T11:06:38;37.28;;;17.10;;
12433;SDS011;6281;49.038;8.372;2022-12-17T11:09:33;42.47;;;18.65;;
12433;SDS011;6281;49.038;8.372;2022-12-17T11:12:26;37.53;;;18.02;;
12433;SDS011;6281;49.038;8.372;2022-12-17T11:15:17;40.00;;;18.75;;
12433;SDS011;6281;49.038;8.372;2022-12-17T11:18:04;34.60;;;17.45;;
12433;SDS011;6281;49.038;8.372;2022-12-17T11:20:54;38.38;;;17.80;;
12433;SDS011;6281;49.038;8.372;2022-12-17T11:23:43;39.33;;;17.95;;
12433;SDS011;6281;49.038;8.372;2022-12-17T11:26:31;38.75;;;18.35;;
12433;SDS011;6281;49.038;8.372;2022-12-17T11:29:19;42.97;;;19.92;;
12433;SDS011;6281;49.038;8.372;2022-12-17T11:32:12;36.70;;;17.73;;
12433;SDS011;6281;49.038;8.372;2022-12-17T11:35:15;42.58;;;19.27;;
12433;SDS011;6281;49.038;8.372;2022-12-17T11:38:09;42.45;;;19.27;;
12433;SDS011;6281;49.038;8.372;2022-12-17T11:41:00;43.35;;;17.40;;
12433;SDS011;6281;49.038;8.372;2022-12-17T11:43:55;37.90;;;19.15;;
12433;SDS011;6281;49.038;8.372;2022-12-17T11:46:47;35.38;;;15.65;;
12433;SDS011;6281;49.038;8.372;2022-12-17T11:49:38;36.20;;;17.52;;
12433;SDS011;6281;49.038;8.372;2022-12-17T11:52:29;30.38;;;15.88;;
12433;SDS011;6281;49.038;8.372;2022-12-17T11:55:20;36.05;;;17.92;;
12433;SDS011;6281;49.038;8.372;2022-12-17T11:58:10;38.58;;;17.33;;
12433;SDS011;6281;49.038;8.372;2022-12-17T12:01:01;38.83;;;16.58;;
12433;SDS011;6281;49.038;8.372;2022-12-17T12:03:55;33.10;;;17.10;;
12433;SDS011;6281;49.038;8.372;2022-12-17T12:06:47;30.08;;;14.98;;
12433;SDS011;6281;49.038;8.372;2022-12-17T12:09:40;34.28;;;17.13;;
12433;SDS011;6281;49.038;8.372;2022-12-17T12:12:34;31.05;;;15.23;;
12433;SDS011;6281;49.038;8.372;2022-12-17T12:15:28;32.72;;;16.15;;
12433;SDS011;6281;49.038;8.372;2022-12-17T12:18:23;31.27;;;16.40;;
12433;SDS011;6281;49.038;8.372;2022-12-17T12:21:20;33.75;;;16.42;;
12433;SDS011;6281;49.038;8.372;2022-12-17T12:24:16;37.80;;;18.15;;
12433;SDS011;6281;49.038;8.372;2022-12-17T12:27:16;36.78;;;17.95;;
12433;SDS011;6281;49.038;8.372;2022-12-17T12:30:12;35.28;;;17.33;;
12433;SDS011;6281;49.038;8.372;2022-12-17T12:33:03;37.00;;;19.60;;
12433;SDS011;6281;49.038;8.372;2022-12-17T12:35:57;40.97;;;21.08;;
12433;SDS011;6281;49.038;8.372;2022-12-17T12:38:43;42.15;;;20.48;;
12433;SDS011;6281;49.038;8.372;2022-12-17T12:44:05;37.70;;;20.45;;
12433;SDS011;6281;49.038;8.372;2022-12-17T12:46:59;38.65;;;19.45;;
12433;SDS011;6281;49.038;8.372;2022-12-17T12:49:51;38.10;;;19.88;;
12433;SDS011;6281;49.038;8.372;2022-12-17T12:52:42;37.22;;;20.65;;
12433;SDS011;6281;49.038;8.372;2022-12-17T12:55:35;36.47;;;19.75;;
12433;SDS011;6281;49.038;8.372;2022-12-17T12:58:24;34.55;;;18.92;;
12433;SDS011;6281;49.038;8.372;2022-12-17T13:01:11;34.17;;;18.65;;
12433;SDS011;6281;49.038;8.372;2022-12-17T13:03:56;41.00;;;19.80;;
12433;SDS011;6281;49.038;8.372;2022-12-17T13:06:44;37.80;;;19.60;;
12433;SDS011;6281;49.038;8.372;2022-12-17T13:09:18;39.25;;;20.25;;
12433;SDS011;6281;49.038;8.372;2022-12-17T13:11:47;37.63;;;18.13;;
12433;SDS011;6281;49.038;8.372;2022-12-17T13:14:19;30.73;;;16.60;;
12433;SDS011;6281;49.038;8.372;2022-12-17T13:16:51;31.58;;;16.88;;
12433;SDS011;6281;49.038;8.372;2022-12-17T13:19:30;32.20;;;16.92;;
12433;SDS011;6281;49.038;8.372;2022-12-17T13:22:08;35.85;;;18.63;;
12433;SDS011;6281;49.038;8.372;2022-12-17T13:24:53;34.95;;;18.15;;
12433;SDS011;6281;49.038;8.372;2022-12-17T13:27:27;38.67;;;19.27;;
12433;SDS011;6281;49.038;8.372;2022-12-17T13:29:55;34.88;;;17.73;;
12433;SDS011;6281;49.038;8.372;2022-12-17T13:32:26;35.13;;;18.92;;
12433;SDS011;6281;49.038;8.372;2022-12-17T13:35:03;38.63;;;19.73;;
12433;SDS011;6281;49.038;8.372;2022-12-17T13:37:42;36.15;;;19.98;;
12433;SDS011;6281;49.038;8.372;2022-12-17T13:40:24;41.25;;;20.98;;
12433;SDS011;6281;49.038;8.372;2022-12-17T13:42:59;40.28;;;20.30;;
12433;SDS011;6281;49.038;8.372;2022-12-17T13:45:27;39.45;;;19.67;;
12433;SDS011;6281;49.038;8.372;2022-12-17T13:48:04;37.47;;;19.55;;
12433;SDS011;6281;49.038;8.372;2022-12-17T13:50:31;35.85;;;20.45;;
12433;SDS011;6281;49.038;8.372;2022-12-17T13:53:07;34.80;;;20.55;;
12433;SDS011;6281;49.038;8.372;2022-12-17T13:55:34;36.17;;;18.52;;
12433;SDS011;6281;49.038;8.372;2022-12-17T13:58:01;36.08;;;19.42;;
12433;SDS011;6281;49.038;8.372;2022-12-17T14:00:29;37.80;;;20.08;;
12433;SDS011;6281;49.038;8.372;2022-12-17T14:02:56;36.35;;;19.85;;
12433;SDS011;6281;49.038;8.372;2022-12-17T14:05:35;40.53;;;19.27;;
12433;SDS011;6281;49.038;8.372;2022-12-17T14:08:06;36.00;;;18.60;;
12433;SDS011;6281;49.038;8.372;2022-12-17T14:10:34;34.55;;;18.33;;
12433;SDS011;6281;49.038;8.372;2022-12-17T14:13:03;36.88;;;19.48;;
12433;SDS011;6281;49.038;8.372;2022-12-17T14:15:31;37.38;;;19.77;;
12433;SDS011;6281;49.038;8.372;2022-12-17T14:17:58;38.33;;;18.65;;
12433;SDS011;6281;49.038;8.372;2022-12-17T14:20:27;36.40;;;20.23;;
12433;SDS011;6281;49.038;8.372;2022-12-17T14:22:59;35.92;;;20.05;;
12433;SDS011;6281;49.038;8.372;2022-12-17T14:25:29;35.60;;;19.50;;
12433;SDS011;6281;49.038;8.372;2022-12-17T14:28:01;37.47;;;19.63;;
12433;SDS011;6281;49.038;8.372;2022-12-17T14:30:32;35.63;;;19.23;;
12433;SDS011;6281;49.038;8.372;2022-12-17T14:33:02;37.38;;;18.38;;
12433;SDS011;6281;49.038;8.372;2022-12-17T14:35:30;38.05;;;20.25;;
12433;SDS011;6281;49.038;8.372;2022-12-17T14:38:02;35.40;;;18.60;;
12433;SDS011;6281;49.038;8.372;2022-12-17T14:40:29;34.00;;;20.00;;
12433;SDS011;6281;49.038;8.372;2022-12-17T14:42:57;32.60;;;19.25;;
12433;SDS011;6281;49.038;8.372;2022-12-17T14:45:25;31.75;;;18.98;;
12433;SDS011;6281;49.038;8.372;2022-12-17T14:47:53;37.83;;;19.20;;
12433;SDS011;6281;49.038;8.372;2022-12-17T14:50:27;33.08;;;18.05;;
12433;SDS011;6281;49.038;8.372;2022-12-17T14:52:57;37.22;;;19.95;;
12433;SDS011;6281;49.038;8.372;2022-12-17T14:55:31;34.25;;;19.38;;
12433;SDS011;6281;49.038;8.372;2022-12-17T15:00:49;35.63;;;20.10;;
12433;SDS011;6281;49.038;8.372;2022-12-17T15:03:19;38.63;;;20.33;;
12433;SDS011;6281;49.038;8.372;2022-12-17T15:05:49;39.15;;;20.60;;
12433;SDS011;6281;49.038;8.372;2022-12-17T15:08:18;37.50;;;22.08;;
12433;SDS011;6281;49.038;8.372;2022-12-17T15:10:47;36.20;;;19.50;;
12433;SDS011;6281;49.038;8.372;2022-12-17T15:13:14;40.97;;;21.30;;
12433;SDS011;6281;49.038;8.372;2022-12-17T15:15:41;34.63;;;21.25;;
12433;SDS011;6281;49.038;8.372;2022-12-17T15:18:08;38.90;;;21.77;;
12433;SDS011;6281;49.038;8.372;2022-12-17T15:20:35;37.47;;;22.17;;
12433;SDS011;6281;49.038;8.372;2022-12-17T15:23:02;40.13;;;21.42;;
12433;SDS011;6281;49.038;8.372;2022-12-17T15:25:29;38.58;;;21.55;;
12433;SDS011;6281;49.038;8.372;2022-12-17T15:27:57;40.33;;;21.98;;
12433;SDS011;6281;49.038;8.372;2022-12-17T15:30:24;36.50;;;21.08;;
12433;SDS011;6281;49.038;8.372;2022-12-17T15:32:51;40.97;;;21.83;;
12433;SDS011;6281;49.038;8.372;2022-12-17T15:35:18;37.22;;;22.40;;
12433;SDS011;6281;49.038;8.372;2022-12-17T15:37:45;38.13;;;21.90;;
12433;SDS011;6281;49.038;8.372;2022-12-17T15:40:12;41.22;;;21.63;;
12433;SDS011;6281;49.038;8.372;2022-12-17T15:42:39;39.38;;;21.05;;
12433;SDS011;6281;49.038;8.372;2022-12-17T15:45:25;38.40;;;20.90;;
12433;SDS011;6281;49.038;8.372;2022-12-17T15:47:51;37.58;;;20.92;;
12433;SDS011;6281;49.038;8.372;2022-12-17T15:50:18;41.50;;;20.30;;
12433;SDS011;6281;49.038;8.372;2022-12-17T15:52:45;39.50;;;20.88;;
12433;SDS011;6281;49.038;8.372;2022-12-17T15:55:13;42.88;;;20.85;;
12433;SDS011;6281;49.038;8.372;2022-12-17T15:57:40;42.45;;;21.25;;
12433;SDS011;6281;49.038;8.372;2022-12-17T16:00:08;41.38;;;20.50;;
12433;SDS011;6281;49.038;8.372;2022-12-17T16:02:37;45.50;;;21.08;;
12433;SDS011;6281;49.038;8.372;2022-12-17T16:05:05;43.40;;;21.25;;
12433;SDS011;6281;49.038;8.372;2022-12-17T16:07:32;41.08;;;20.98;;
12433;SDS011;6281;49.038;8.372;2022-12-17T16:10:01;45.40;;;21.88;;
12433;SDS011;6281;49.038;8.372;2022-12-17T16:12:27;44.40;;;22.65;;
12433;SDS011;6281;49.038;8.372;2022-12-17T16:14:54;45.60;;;22.05;;
12433;SDS011;6281;49.038;8.372;2022-12-17T16:17:21;47.47;;;23.48;;